Portada
METAR-TAF:

METAR-TAF

Aeroports :

North Central State Airport

Pawtucket, Rhode Island, Estats Units d'Amèrica

latitud: 41-55N, longitud: 071-30W, altitud: 134 m

Observació

L'informe es va fer fa 28 minuts, a les 16:56 UTC
Vent 6 kt del Sud-Oest
Temperatura 15°C
Humitat 100%
Pressió 1016 hPa
Visibilitat: 14.5 km
Cel cobert a una alçada de 900 ft
pluja

METAR: KSFZ 261656Z AUTO 22006KT 9SM -RA OVC009 15/15 A3000 RMK AO2 CIG 006V012 SLP104 P0005 T01500150

Hora: 12:24 (17:24 UTC)


TAF: manca

Observacions i pronòstics meteorològics de més de 4000 aeroports (METAR i TAF).

Les estacions disponibles són els punts grocs i vermells al mapa.

Posi el ratolí al punt desitjat per veure el nom de l'estació.

Feu clic per veure les observacions i els pronòstics meteorològics.

Per canviar el mapa: feu clic els botons verds amb una creu de color negre per apropar; al botó verd amb un guió per allunyar la imatge; o en les fletxes verdes per a mapes adjacents.


METAR-TAF: